createdAt,value
2022-10-17T00:00:54.388Z,2.03
2022-10-17T00:03:24.206Z,2.40
2022-10-17T00:05:54.246Z,1.88
2022-10-17T00:08:23.924Z,2.03
2022-10-17T00:11:05.612Z,1.92
2022-10-17T00:13:36.521Z,3.00
2022-10-17T00:16:07.084Z,2.17
2022-10-17T00:18:37.096Z,2.25
2022-10-17T00:21:07.114Z,2.17
2022-10-17T00:23:36.816Z,2.33
2022-10-17T00:26:07.678Z,2.45
2022-10-17T00:28:37.445Z,2.13
2022-10-17T00:31:08.897Z,2.25
2022-10-17T00:33:40.348Z,2.13
2022-10-17T00:36:15.443Z,2.45
2022-10-17T00:38:48.496Z,2.05
2022-10-17T00:41:20.547Z,2.35
2022-10-17T00:44:29.217Z,2.28
2022-10-17T00:47:07.517Z,2.10
2022-10-17T00:49:40.415Z,2.50
2022-10-17T00:52:21.313Z,2.50
2022-10-17T00:54:57.251Z,2.60
2022-10-17T00:57:29.472Z,2.67
2022-10-17T01:00:01.815Z,2.40
2022-10-17T01:02:31.859Z,2.78
2022-10-17T01:05:01.995Z,2.33
2022-10-17T01:07:34.916Z,2.10
2022-10-17T01:13:12.989Z,1.88
2022-10-17T01:16:21.779Z,1.85
2022-10-17T01:19:02.303Z,2.33
2022-10-17T01:21:47.897Z,2.00
2022-10-17T01:24:36.429Z,2.28
2022-10-17T01:27:28.505Z,2.05
2022-10-17T01:30:26.202Z,1.95
2022-10-17T01:33:04.109Z,2.05
2022-10-17T01:35:46.349Z,2.08
2022-10-17T01:38:20.239Z,2.00
2022-10-17T01:41:02.060Z,2.10
2022-10-17T01:44:05.639Z,2.10
2022-10-17T01:46:46.537Z,2.05
2022-10-17T01:49:22.343Z,2.75
2022-10-17T01:52:02.166Z,1.85
2022-10-17T01:54:44.738Z,2.60
2022-10-17T01:57:38.953Z,1.95
2022-10-17T02:00:16.320Z,2.05
2022-10-17T02:02:47.987Z,2.58
2022-10-17T02:05:23.577Z,3.08
2022-10-17T02:07:53.521Z,2.13
2022-10-17T02:10:51.172Z,2.17
2022-10-17T02:13:47.550Z,2.10
2022-10-17T02:16:37.659Z,2.53
2022-10-17T02:19:13.347Z,2.30
2022-10-17T02:22:15.398Z,2.50
2022-10-17T02:25:02.507Z,2.40
2022-10-17T02:27:55.600Z,2.40
2022-10-17T02:30:35.704Z,2.10
2022-10-17T02:33:15.379Z,2.38
2022-10-17T02:35:51.189Z,2.63
2022-10-17T02:38:23.240Z,2.47
2022-10-17T02:40:55.517Z,2.30
2022-10-17T02:43:25.957Z,2.30
2022-10-17T02:45:56.200Z,2.88
2022-10-17T02:49:09.533Z,2.70
2022-10-17T02:52:05.929Z,1.75
2022-10-17T02:54:43.482Z,2.70
2022-10-17T02:57:24.244Z,2.28
2022-10-17T02:59:54.975Z,2.33
2022-10-17T03:02:26.908Z,2.17
2022-10-17T03:04:57.914Z,2.22
2022-10-17T03:07:27.850Z,2.20
2022-10-17T03:09:58.654Z,2.13
2022-10-17T03:12:28.568Z,2.00
2022-10-17T03:14:58.821Z,2.30
2022-10-17T03:17:28.517Z,2.42
2022-10-17T03:19:59.154Z,2.35
2022-10-17T03:22:29.093Z,2.70
2022-10-17T03:25:00.667Z,2.65
2022-10-17T03:27:31.335Z,2.33
2022-10-17T03:30:01.817Z,2.63
2022-10-17T03:32:35.459Z,2.53
2022-10-17T03:35:06.061Z,2.78
2022-10-17T03:37:36.023Z,3.10
2022-10-17T03:40:06.340Z,2.80
2022-10-17T03:42:36.292Z,2.97
2022-10-17T03:45:06.707Z,2.90
2022-10-17T03:47:36.418Z,2.25
2022-10-17T03:50:06.813Z,3.13
2022-10-17T03:52:39.134Z,2.67
2022-10-17T03:55:10.426Z,3.28
2022-10-17T03:57:43.409Z,2.88
2022-10-17T04:00:17.541Z,2.55
2022-10-17T04:02:56.196Z,2.20
2022-10-17T04:05:26.910Z,2.60
2022-10-17T04:07:58.721Z,2.63
2022-10-17T04:10:50.896Z,2.90
2022-10-17T04:13:21.047Z,2.50
2022-10-17T04:16:08.380Z,2.88
2022-10-17T04:18:44.297Z,2.72
2022-10-17T04:21:15.503Z,2.42
2022-10-17T04:23:45.791Z,2.45
2022-10-17T04:26:29.279Z,2.88
2022-10-17T04:28:59.546Z,2.55
2022-10-17T04:31:29.463Z,3.10
2022-10-17T04:34:17.090Z,2.83
2022-10-17T04:36:48.255Z,2.63
2022-10-17T04:39:18.247Z,2.92
2022-10-17T04:41:49.281Z,2.67
2022-10-17T04:44:19.563Z,3.30
2022-10-17T04:46:53.865Z,2.63
2022-10-17T04:49:25.371Z,2.80
2022-10-17T04:51:59.511Z,2.60
2022-10-17T04:54:55.668Z,3.15
2022-10-17T04:57:26.990Z,3.33
2022-10-17T05:00:04.446Z,3.30
2022-10-17T05:02:50.058Z,2.70
2022-10-17T05:05:20.307Z,3.67
2022-10-17T05:07:53.017Z,5.00
2022-10-17T05:10:26.843Z,4.45
2022-10-17T05:12:57.184Z,4.80
2022-10-17T05:15:31.887Z,4.18
2022-10-17T05:18:02.057Z,5.10
2022-10-17T05:20:32.699Z,3.55
2022-10-17T05:23:03.844Z,4.20
2022-10-17T05:25:38.291Z,4.45
2022-10-17T05:28:09.232Z,4.00
2022-10-17T05:30:41.051Z,4.40
2022-10-17T05:33:12.324Z,4.18
2022-10-17T05:35:43.126Z,3.90
2022-10-17T05:38:13.122Z,3.45
2022-10-17T05:40:44.791Z,3.15
2022-10-17T05:43:15.900Z,3.70
2022-10-17T05:45:47.486Z,3.83
2022-10-17T05:48:22.322Z,3.35
2022-10-17T05:51:01.866Z,3.75
2022-10-17T05:53:33.894Z,3.45
2022-10-17T05:56:09.747Z,3.80
2022-10-17T05:58:54.103Z,3.63
2022-10-17T06:01:45.428Z,3.20
2022-10-17T06:04:15.582Z,3.85
2022-10-17T06:06:45.893Z,4.00
2022-10-17T06:09:16.227Z,3.63
2022-10-17T06:11:49.670Z,5.10
2022-10-17T06:14:20.028Z,3.42
2022-10-17T06:16:52.953Z,3.63
2022-10-17T06:19:22.955Z,3.42
2022-10-17T06:21:53.556Z,3.55
2022-10-17T06:24:25.716Z,3.08
2022-10-17T06:26:56.431Z,3.30
2022-10-17T06:29:26.209Z,3.20
2022-10-17T06:31:56.251Z,3.10
2022-10-17T06:34:27.229Z,3.53
2022-10-17T06:39:35.058Z,2.90
2022-10-17T06:45:03.180Z,3.00
2022-10-17T06:47:44.356Z,2.95
2022-10-17T06:50:29.939Z,2.92
2022-10-17T06:53:14.947Z,4.03
2022-10-17T06:55:52.484Z,2.90
2022-10-17T06:58:42.407Z,3.30
2022-10-17T07:01:34.501Z,2.90
2022-10-17T07:04:06.303Z,3.65
2022-10-17T07:06:36.916Z,3.60
2022-10-17T07:09:12.452Z,3.13
2022-10-17T07:11:42.633Z,2.55
2022-10-17T07:14:12.376Z,3.25
2022-10-17T07:16:42.460Z,2.60
2022-10-17T07:19:24.629Z,3.50
2022-10-17T07:21:55.159Z,2.28
2022-10-17T07:24:26.217Z,3.15
2022-10-17T07:27:01.745Z,2.35
2022-10-17T07:29:31.939Z,2.60
2022-10-17T07:32:09.758Z,3.15
2022-10-17T07:34:40.598Z,3.10
2022-10-17T07:37:11.920Z,3.05
2022-10-17T07:39:46.699Z,2.50
2022-10-17T07:42:16.668Z,2.33
2022-10-17T07:44:48.596Z,2.60
2022-10-17T07:47:19.034Z,2.20
2022-10-17T07:49:49.964Z,2.45
2022-10-17T07:52:20.307Z,2.10
2022-10-17T07:54:49.980Z,2.17
2022-10-17T07:57:19.656Z,1.70
2022-10-17T07:59:49.431Z,2.15
2022-10-17T08:02:29.576Z,2.25
2022-10-17T08:04:59.967Z,1.80
2022-10-17T08:07:29.650Z,2.20
2022-10-17T08:09:59.421Z,2.08
2022-10-17T08:12:33.522Z,1.90
2022-10-17T08:15:03.725Z,1.80
2022-10-17T08:17:34.354Z,1.55
2022-10-17T08:20:05.200Z,1.73
2022-10-17T08:22:35.443Z,1.65
2022-10-17T08:25:05.790Z,1.48
2022-10-17T08:27:37.389Z,1.70
2022-10-17T08:30:08.229Z,1.25
2022-10-17T08:32:37.927Z,1.98
2022-10-17T08:35:08.073Z,1.70
2022-10-17T08:37:38.060Z,1.90
2022-10-17T08:40:08.321Z,1.60
2022-10-17T08:43:01.946Z,1.75
2022-10-17T08:45:53.364Z,1.60
2022-10-17T08:48:27.354Z,1.40
2022-10-17T08:51:00.593Z,1.50
2022-10-17T08:53:48.451Z,1.73
2022-10-17T08:56:19.866Z,1.65
2022-10-17T08:58:55.016Z,1.42
2022-10-17T09:02:00.776Z,1.30
2022-10-17T09:04:43.170Z,1.35
2022-10-17T09:07:24.101Z,1.40
2022-10-17T09:10:12.694Z,1.73
2022-10-17T09:13:08.939Z,1.60
2022-10-17T09:15:50.624Z,1.25
2022-10-17T09:18:41.013Z,1.45
2022-10-17T09:21:26.920Z,1.30
2022-10-17T09:24:09.570Z,1.50
2022-10-17T09:26:41.823Z,1.60
2022-10-17T09:29:24.657Z,1.60
2022-10-17T09:32:07.063Z,1.40
2022-10-17T09:34:36.933Z,1.50
2022-10-17T09:37:15.543Z,1.75
2022-10-17T09:39:47.108Z,1.40
2022-10-17T09:42:23.022Z,1.65
2022-10-17T09:47:42.359Z,1.35
2022-10-17T09:50:38.737Z,1.70
2022-10-17T09:53:16.983Z,1.15
2022-10-17T09:55:50.746Z,1.38
2022-10-17T09:58:23.283Z,1.10
2022-10-17T10:00:53.368Z,1.42
2022-10-17T10:03:28.372Z,1.10
2022-10-17T10:06:06.952Z,1.42
2022-10-17T10:08:56.988Z,1.50
2022-10-17T10:11:49.814Z,1.80
2022-10-17T10:14:40.962Z,1.13
2022-10-17T10:17:44.822Z,1.15
2022-10-17T10:20:35.473Z,1.20
2022-10-17T10:23:13.963Z,1.02
2022-10-17T10:25:59.446Z,1.08
2022-10-17T10:28:35.698Z,1.20
2022-10-17T10:31:10.421Z,1.48
2022-10-17T10:33:49.495Z,1.17
2022-10-17T10:36:24.021Z,1.10
2022-10-17T10:39:02.406Z,1.30
2022-10-17T10:41:48.955Z,1.17
2022-10-17T10:44:28.039Z,1.05
2022-10-17T10:47:15.783Z,1.00
2022-10-17T10:49:46.641Z,1.40
2022-10-17T10:52:36.265Z,1.17
2022-10-17T10:55:17.964Z,1.30
2022-10-17T10:57:51.654Z,1.33
2022-10-17T11:00:27.635Z,1.65
2022-10-17T11:03:17.293Z,1.23
2022-10-17T11:05:57.948Z,1.17
2022-10-17T11:08:42.771Z,1.90
2022-10-17T11:11:29.667Z,1.35
2022-10-17T11:14:13.854Z,1.33
2022-10-17T11:16:59.368Z,1.48
2022-10-17T11:19:32.146Z,1.10
2022-10-17T11:22:18.457Z,1.20
2022-10-17T11:24:59.144Z,1.40
2022-10-17T11:27:34.263Z,1.27
2022-10-17T11:30:05.240Z,1.20
2022-10-17T11:33:12.759Z,1.17
2022-10-17T11:35:47.334Z,1.48
2022-10-17T11:38:17.272Z,1.60
2022-10-17T11:40:55.050Z,1.90
2022-10-17T11:43:37.643Z,1.65
2022-10-17T11:46:34.134Z,1.92
2022-10-17T11:49:19.821Z,1.70
2022-10-17T11:52:00.858Z,1.70
2022-10-17T11:54:51.472Z,1.88
2022-10-17T11:57:40.567Z,2.28
2022-10-17T12:00:42.178Z,3.15
2022-10-17T12:03:31.279Z,3.30
2022-10-17T12:06:01.196Z,4.60
2022-10-17T12:08:54.289Z,4.75
2022-10-17T12:11:43.433Z,4.78
2022-10-17T12:14:50.271Z,5.85
2022-10-17T12:17:33.637Z,4.82
2022-10-17T12:20:36.386Z,4.28
2022-10-17T12:23:15.404Z,4.20
2022-10-17T12:25:57.105Z,3.45
2022-10-17T12:28:41.829Z,2.80
2022-10-17T12:31:14.207Z,2.50
2022-10-17T12:33:59.209Z,2.22
2022-10-17T12:36:32.030Z,2.38
2022-10-17T12:39:04.833Z,3.20
2022-10-17T12:41:41.036Z,3.08
2022-10-17T12:44:17.147Z,2.33
2022-10-17T12:46:56.622Z,2.40
2022-10-17T12:49:49.142Z,2.30
2022-10-17T12:52:36.304Z,2.35
2022-10-17T12:55:12.111Z,2.40
2022-10-17T12:57:43.309Z,2.05
2022-10-17T13:00:34.546Z,2.28
2022-10-17T13:03:18.582Z,1.83
2022-10-17T13:06:08.977Z,2.10
2022-10-17T13:08:45.805Z,2.13
2022-10-17T13:11:16.517Z,2.22
2022-10-17T13:13:51.315Z,2.10
2022-10-17T13:16:30.094Z,1.90
2022-10-17T13:19:01.481Z,2.00
2022-10-17T13:21:32.074Z,1.77
2022-10-17T13:24:02.278Z,2.00
2022-10-17T13:26:31.973Z,1.73
2022-10-17T13:29:13.917Z,2.17
2022-10-17T13:31:46.985Z,1.48
2022-10-17T13:34:24.268Z,1.77
2022-10-17T13:37:16.658Z,1.70
2022-10-17T13:39:55.726Z,1.70
2022-10-17T13:42:38.787Z,2.90
2022-10-17T13:45:20.611Z,1.52
2022-10-17T13:47:51.249Z,1.38
2022-10-17T13:50:45.790Z,1.40
2022-10-17T13:53:20.869Z,1.73
2022-10-17T13:56:34.711Z,2.40
2022-10-17T13:59:21.413Z,2.75
2022-10-17T14:01:53.239Z,3.88
2022-10-17T14:04:23.300Z,2.58
2022-10-17T14:06:53.996Z,1.65
2022-10-17T14:09:30.500Z,1.70
2022-10-17T14:12:00.341Z,1.42
2022-10-17T14:14:46.176Z,1.48
2022-10-17T14:17:28.012Z,1.70
2022-10-17T14:20:40.457Z,1.35
2022-10-17T14:23:21.059Z,1.95
2022-10-17T14:25:45.694Z,1.55
2022-10-17T14:28:17.926Z,1.60
2022-10-17T14:30:56.659Z,1.45
2022-10-17T14:33:31.423Z,1.17
2022-10-17T14:36:04.222Z,1.63
2022-10-17T14:38:34.243Z,2.15
2022-10-17T14:41:42.294Z,2.42
2022-10-17T14:44:07.639Z,1.60
2022-10-17T14:46:38.948Z,1.45
2022-10-17T14:49:23.243Z,1.17
2022-10-17T14:52:19.128Z,1.55
2022-10-17T14:54:51.867Z,1.25
2022-10-17T14:57:28.461Z,1.63
2022-10-17T14:59:58.856Z,2.10
2022-10-17T15:02:31.287Z,1.17
2022-10-17T15:05:01.656Z,1.33
2022-10-17T15:07:31.554Z,2.30
2022-10-17T15:10:01.956Z,1.20
2022-10-17T15:12:32.673Z,1.88
2022-10-17T15:15:02.709Z,1.30
2022-10-17T15:17:35.642Z,1.60
2022-10-17T15:20:14.078Z,1.50
2022-10-17T15:22:44.134Z,1.70
2022-10-17T15:25:14.147Z,1.25
2022-10-17T15:27:44.196Z,1.65
2022-10-17T15:30:30.454Z,1.25
2022-10-17T15:33:01.698Z,1.48
2022-10-17T15:35:31.716Z,1.42
2022-10-17T15:38:01.381Z,1.80
2022-10-17T15:40:32.424Z,1.52
2022-10-17T15:43:02.278Z,1.90
2022-10-17T15:45:33.735Z,1.95
2022-10-17T15:48:08.136Z,1.75
2022-10-17T15:50:38.951Z,1.73
2022-10-17T15:53:14.070Z,1.40
2022-10-17T15:58:17.708Z,1.35
2022-10-17T16:00:48.259Z,1.48
2022-10-17T16:03:18.090Z,1.48
2022-10-17T16:05:47.837Z,1.52
2022-10-17T16:08:18.634Z,1.55
2022-10-17T16:10:48.641Z,1.73
2022-10-17T16:13:25.041Z,1.88
2022-10-17T16:15:56.904Z,1.73
2022-10-17T16:18:26.913Z,1.73
2022-10-17T16:20:56.752Z,1.73
2022-10-17T16:23:27.220Z,1.80
2022-10-17T16:25:56.863Z,1.80
2022-10-17T16:28:26.543Z,1.55
2022-10-17T16:30:57.175Z,1.63
2022-10-17T16:33:27.121Z,1.80
2022-10-17T16:35:56.941Z,1.75
2022-10-17T16:38:26.668Z,1.80
2022-10-17T16:40:56.336Z,1.67
2022-10-17T16:43:26.018Z,1.40
2022-10-17T16:45:55.676Z,1.67
2022-10-17T16:48:29.586Z,1.70
2022-10-17T16:51:00.140Z,1.65
2022-10-17T16:53:30.632Z,1.73
2022-10-17T16:56:05.042Z,2.30
2022-10-17T16:58:35.193Z,1.40
2022-10-17T17:01:07.348Z,1.45
2022-10-17T17:03:41.884Z,1.90
2022-10-17T17:06:34.250Z,1.42
2022-10-17T17:09:04.406Z,2.05
2022-10-17T17:11:34.178Z,2.10
2022-10-17T17:14:03.991Z,1.60
2022-10-17T17:16:35.656Z,1.42
2022-10-17T17:19:11.758Z,1.65
2022-10-17T17:21:48.659Z,1.23
2022-10-17T17:24:22.685Z,1.52
2022-10-17T17:26:55.909Z,1.48
2022-10-17T17:29:26.704Z,1.58
2022-10-17T17:31:56.491Z,1.70
2022-10-17T17:34:26.599Z,1.50
2022-10-17T17:36:56.654Z,1.48
2022-10-17T17:39:26.346Z,1.45
2022-10-17T17:41:56.770Z,1.33
2022-10-17T17:44:26.941Z,1.60
2022-10-17T17:46:56.663Z,1.50
2022-10-17T17:49:26.416Z,1.80
2022-10-17T17:51:56.130Z,1.58
2022-10-17T17:54:25.833Z,1.88
2022-10-17T17:56:55.710Z,1.63
2022-10-17T17:59:25.455Z,1.60
2022-10-17T18:01:55.425Z,1.50
2022-10-17T18:04:25.209Z,2.20
2022-10-17T18:06:54.870Z,1.95
2022-10-17T18:09:25.059Z,1.83
2022-10-17T18:11:55.085Z,2.10
2022-10-17T18:14:27.679Z,1.95
2022-10-17T18:16:57.760Z,1.83
2022-10-17T18:19:29.313Z,1.88
2022-10-17T18:21:59.328Z,2.33
2022-10-17T18:24:29.902Z,2.15
2022-10-17T18:27:01.063Z,1.98
2022-10-17T18:29:30.984Z,1.73
2022-10-17T18:32:01.730Z,1.98
2022-10-17T18:34:31.459Z,1.92
2022-10-17T18:37:01.232Z,2.28
2022-10-17T18:39:30.925Z,2.30
2022-10-17T18:42:00.629Z,1.77
2022-10-17T18:44:30.337Z,1.80
2022-10-17T18:47:03.893Z,1.77
2022-10-17T18:49:34.493Z,1.73
2022-10-17T18:52:04.360Z,1.92
2022-10-17T18:54:34.683Z,1.63
2022-10-17T18:57:04.698Z,1.60
2022-10-17T18:59:34.940Z,1.30
2022-10-17T19:02:04.762Z,1.58
2022-10-17T19:04:34.591Z,1.67
2022-10-17T19:07:04.348Z,1.70
2022-10-17T19:09:34.167Z,1.40
2022-10-17T19:12:03.988Z,1.50
2022-10-17T19:14:33.736Z,1.55
2022-10-17T19:17:04.163Z,1.55
2022-10-17T19:19:33.960Z,1.38
2022-10-17T19:22:04.654Z,1.48
2022-10-17T19:24:34.308Z,1.63
2022-10-17T19:27:05.809Z,1.55
2022-10-17T19:29:36.401Z,1.60
2022-10-17T19:32:14.229Z,1.25
2022-10-17T19:34:46.949Z,1.67
2022-10-17T19:37:16.769Z,1.20
2022-10-17T19:39:46.421Z,1.25
2022-10-17T19:42:16.113Z,1.48
2022-10-17T19:44:45.820Z,1.33
2022-10-17T19:47:15.460Z,1.30
2022-10-17T19:49:49.729Z,1.33
2022-10-17T19:52:19.917Z,1.10
2022-10-17T19:54:50.481Z,0.93
2022-10-17T19:57:20.629Z,1.35
2022-10-17T19:59:55.974Z,1.63
2022-10-17T20:02:26.578Z,1.75
2022-10-17T20:05:13.859Z,1.50
2022-10-17T20:07:46.310Z,1.40
2022-10-17T20:10:16.197Z,1.20
2022-10-17T20:12:46.022Z,1.58
2022-10-17T20:15:15.700Z,1.30
2022-10-17T20:17:46.144Z,1.27
2022-10-17T20:20:16.125Z,1.15
2022-10-17T20:22:45.957Z,1.70
2022-10-17T20:25:15.638Z,1.35
2022-10-17T20:27:45.399Z,1.42
2022-10-17T20:30:15.407Z,1.42
2022-10-17T20:32:45.068Z,1.20
2022-10-17T20:35:14.802Z,1.15
2022-10-17T20:37:44.464Z,1.70
2022-10-17T20:40:34.133Z,1.40
2022-10-17T20:43:06.229Z,1.35
2022-10-17T20:45:51.549Z,1.35
2022-10-17T20:48:23.348Z,1.30
2022-10-17T20:50:53.559Z,1.40
2022-10-17T20:53:38.732Z,1.52
2022-10-17T20:56:10.869Z,1.73
2022-10-17T20:58:41.339Z,1.45
2022-10-17T21:01:12.199Z,1.70
2022-10-17T21:03:46.378Z,1.35
2022-10-17T21:06:17.997Z,1.50
2022-10-17T21:08:49.543Z,1.75
2022-10-17T21:11:21.721Z,1.50
2022-10-17T21:13:58.212Z,0.95
2022-10-17T21:16:29.470Z,1.23
2022-10-17T21:19:00.287Z,1.90
2022-10-17T21:21:35.204Z,1.20
2022-10-17T21:24:08.908Z,1.33
2022-10-17T21:26:39.710Z,1.02
2022-10-17T21:29:10.766Z,1.05
2022-10-17T21:31:42.874Z,1.05
2022-10-17T21:34:16.018Z,0.80
2022-10-17T21:36:46.508Z,2.28
2022-10-17T21:39:17.081Z,1.13
2022-10-17T21:41:47.165Z,1.33
2022-10-17T21:44:20.748Z,1.00
2022-10-17T21:46:50.954Z,2.45
2022-10-17T21:49:23.121Z,1.33
2022-10-17T21:51:53.995Z,1.13
2022-10-17T21:54:25.099Z,1.00
2022-10-17T21:56:55.285Z,1.23
2022-10-17T21:59:24.938Z,1.02
2022-10-17T22:01:54.758Z,1.00
2022-10-17T22:04:25.386Z,1.38
2022-10-17T22:06:55.044Z,1.05
2022-10-17T22:09:27.207Z,1.48
2022-10-17T22:11:58.330Z,1.33
2022-10-17T22:14:28.962Z,1.35
2022-10-17T22:16:59.004Z,1.60
2022-10-17T22:19:29.178Z,1.55
2022-10-17T22:21:59.182Z,1.38
2022-10-17T22:24:28.905Z,1.75
2022-10-17T22:26:58.660Z,1.20
2022-10-17T22:29:28.457Z,1.70
2022-10-17T22:31:58.115Z,1.35
2022-10-17T22:34:27.909Z,1.45
2022-10-17T22:36:57.683Z,1.55
2022-10-17T22:39:27.337Z,0.90
2022-10-17T22:41:57.046Z,1.10
2022-10-17T22:44:26.765Z,1.70
2022-10-17T22:46:56.765Z,1.40
2022-10-17T22:49:26.509Z,2.05
2022-10-17T22:51:56.166Z,1.17
2022-10-17T22:54:26.058Z,1.25
2022-10-17T22:56:55.747Z,1.15
2022-10-17T22:59:25.580Z,1.58
2022-10-17T23:01:55.309Z,1.30
2022-10-17T23:04:25.147Z,1.65
2022-10-17T23:06:54.825Z,1.23
2022-10-17T23:09:24.640Z,1.27
2022-10-17T23:11:54.378Z,1.35
2022-10-17T23:14:24.035Z,1.20
2022-10-17T23:16:53.775Z,0.85
2022-10-17T23:19:23.547Z,1.27
2022-10-17T23:21:53.281Z,0.95
2022-10-17T23:24:22.982Z,1.13
2022-10-17T23:26:52.698Z,0.93
2022-10-17T23:29:22.981Z,1.27
2022-10-17T23:31:56.818Z,1.00
2022-10-17T23:34:26.734Z,1.00
2022-10-17T23:36:56.567Z,1.17
2022-10-17T23:39:26.379Z,1.08
2022-10-17T23:41:56.109Z,0.85
2022-10-17T23:44:28.277Z,1.10
2022-10-17T23:46:58.313Z,1.15
2022-10-17T23:49:29.113Z,1.30
2022-10-17T23:51:59.240Z,1.27
2022-10-17T23:54:29.056Z,0.95
2022-10-17T23:56:59.143Z,0.70
2022-10-17T23:59:28.897Z,1.38
